18:51
Airports
History
Links
Donate
Help keep this website running!
PayPal
Bitcoin
This page is community maintained. The information is intended for PC simulator navigation or reference.
Always use approved charts for navigation.
I38
Action Airpark
Action Airpark (I38)
Greendale, Indiana, United States (47025)
4
Lat/Lng:39° 7' 57" N / 84° 49' 43" W
39.1325 / -84.828611
Elevation:465'ft / 142mMSL
ID / ICAO:I38
Runways:1
Longest:02-20
Grass 402m / 1,320ft
Nearby Weather17:52 GMT 2017-09-22
Nearby weather at KCVG, Cincinnati/northern Kentucky I located 10.4 nautical miles from I38
Altimeter: 30.10
Visibility: 10.0 statute miles
Wind: 3 knots (from VRB°)
Temp: 31°c / 88°f
Humidity: 55.4%

METAR: KCVG 221752Z VRB03KT 10SM FEW046 SCT055 31/21 A3010 RMK AO2 SLP180 MDT CU NE T03110211 10311 20194 58014

(Powered by phpweather)
Nearby VORs <50NM
Nearby NDBs
Runway 02 / 20
Dimensions:402.3 x 30.5m 1320' x 100'ft
Surface:Grass
Runway 02 [A]Runway 20 [B]
Heading:016°TH 196°TH
Lat:
Lng:
39° 7' 50.86"N
84° 49' 45.42"W
39° 8' 3.14"N
84° 49' 40.58"W
User Notes and Comments
39° 7' 57" N / 84° 49' 43" W
Distance To
Airport ID:
Nearby Airports
4 Ty Combs Field 5.2 NM
1KY8 SE 132°
(R) Sunrise Acres 7.2 NM
71KY SSW 199°
(U) Cincinnati West 9.2 NM
I67 NNE 18°
(C) Cincinnati/northern Kentucky I 10.4 NM
KCVG ( WX ) ESE 123°
(R) Raylene 12.3 NM
OH68 NNE 19°
(R) Rising Sun 12.8 NM
67IN S 185°
(R) Estes 13.5 NM
67KY SE 139°
VFR Chart
Flight Planning at SkyVector.com